This is the latest recevied weather packets stored in our database for station/object KB2SKP. If no packets are shown the sender has not sent any weather packets the latest 10 day(s).
| Time | Temp. | Humidity | Pressure | Rain* | Wind** | Luminosity | Snow |
|---|---|---|---|---|---|---|---|
| 1777735670 | 12.78° C | 60% | 1010.6 hPa | 0 mm | - | 19 W/m² | - |
| 1777735368 | 12.22° C | 60% | 1010.4 hPa | 0 mm | - | 94 W/m² | - |
| 1777735065 | 12.22° C | 59% | 1010.9 hPa | 0 mm | - | 103 W/m² | - |
| 1777734762 | 12.78° C | 58% | 1010.9 hPa | 0 mm | - | 109 W/m² | - |
| 1777734460 | 12.22° C | 58% | 1010.7 hPa | 0 mm | - | 117 W/m² | - |
| 1777734156 | 12.22° C | 60% | 1010.8 hPa | 0 mm | - | 106 W/m² | - |
| 1777733852 | 12.22° C | 60% | 1010.4 hPa | 0 mm | - | 105 W/m² | - |
| 1777733548 | 12.22° C | 58% | 1010.5 hPa | 0 mm | - | 103 W/m² | - |
| 1777733245 | 12.22° C | 58% | 1010.5 hPa | 0 mm | - | 100 W/m² | - |
| 1777732937 | 12.22° C | 59% | 1010.2 hPa | 0 mm | - | 121 W/m² | - |
| 1777732632 | 12.22° C | 59% | 1010.2 hPa | 0 mm | - | 133 W/m² | - |
| 1777732330 | 12.22° C | 60% | 1010.2 hPa | 0 mm | - | 113 W/m² | - |
| 1777732028 | 12.22° C | 59% | 1010.3 hPa | 0 mm | - | 120 W/m² | - |
| 1777731724 | 11.67° C | 61% | 1010.4 hPa | 0 mm | - | 118 W/m² | - |
| 1777731421 | 12.22° C | 58% | 1010.2 hPa | 0 mm | - | 112 W/m² | - |
| 1777731120 | 11.67° C | 61% | 1009.9 hPa | 0 mm | - | 121 W/m² | - |
| 1777730514 | 11.67° C | 61% | 1010.2 hPa | 0 mm | - | 125 W/m² | - |
| 1777730209 | 11.67° C | 61% | 1010.2 hPa | 0 mm | - | 107 W/m² | - |
| 1777729907 | 12.22° C | 61% | 1010 hPa | 0 mm | - | 110 W/m² | - |
| 1777729603 | 11.11° C | 60% | 1010 hPa | 0 mm | - | 205 W/m² | - |
| 1777729300 | 11.11° C | 61% | 1009.9 hPa | 0 mm | - | 189 W/m² | - |
| 1777728997 | 11.67° C | 61% | 1010.1 hPa | 0 mm | - | 117 W/m² | - |
| 1777728693 | 11.11° C | 61% | 1009.9 hPa | 0 mm | - | 94 W/m² | - |
| 1777728390 | 11.11° C | 62% | 1009.9 hPa | 0 mm | - | 75 W/m² | - |
| 1777728088 | 11.11° C | 62% | 1010 hPa | 0 mm | - | 80 W/m² | - |
* Rain latest hour (hover to see other rain measurements)
** Current wind speed in m/s (hover to see current wind gust speed)